Slupsk, Poland

7:44 PM CEST on July 22, 2014 (GMT +0200)
IPOMORSK9 Elev 23 ft | 54.59 °N, 16.86 °E | Change Station

Current weather conditions updated 1 second ago

Clear
Clear
65.3 °F
Feels Like 65.3 °F
N
4.0
Wind Variable Wind from North
Gusts 6.9 mph

Tomorrow is forecast to be Much Warmer than today.

Today
High -- | Low -- °F
--% Chance of Precip.
Yesterday
High -- | Low -- °F
Precip. -- in
4:46 AM 9:09 PM
Waning Crescent, 16% visible
Pressure 30.09 in
Visibility -9999.0 miles
Clouds
Dew Point 64 °F
Humidity 97%
Rainfall 0.01 in
Snow Depth Not available.
UV 0.0 out of 12
Pollen Not available.
Air Quality Not available.
Flu Activity Not available.
METAR EPGD 221730Z 04009KT 360V070 CAVOK 22/15 Q1019

More Conditions Fewer Conditions

Pressure 30.09 in
Visibility -9999.0 miles
Clouds
Dew Point 64 °F
Humidity 97%
Rainfall 0.01 in
Snow Depth Not available.
UV 0.0 out of 12
Pollen Not available.
Air Quality Not available.
Flu Activity Not available.
METAR EPGD 221730Z 04009KT 360V070 CAVOK 22/15 Q1019

More Conditions Fewer Conditions

10-Day Weather Forecast

LIGHTNING

Thunderstorms are forecast for your area. Cloud conditions might be right for producing strikes in the next few days, though lightning itself cannot be forecasted.

Lightning is a visible electrical discharge produced by a thunderstorm, based on the build up of oppositely charged particles within a cloud and from cloud to ground.

Know how to stay safe in a lightning storm.

Check out these Lightning WunderPhotos!

Almanac

Astronomy

Jul. 22, 2014 Rise Set
Actual Time 4:46 AM CEST 9:09 PM CEST
Civil Twilight 3:57 AM CEST 9:57 PM CEST
Nautical Twilight 2:41 AM CEST 11:12 PM CEST
Astronomical Twilight 1:30 AM CEST 12:25 AM CEST
Moon 1:16 AM CEST 5:24 PM CEST
Length of Visible Light 18h 00m
Length of Day
16h 23m
Tomorrow will be 3m 5s shorter.
Waning Crescent, 16% of the Moon is Illuminated
Today
Waning Crescent
Jul 26
New
Aug 3
First Quarter
Aug 10
Full
Aug 17
Last Quarter

Today's Extremes

Country Highs Country Lows

Community

WunderPhotos

Upload Photos

1,736,305 photos uploaded!

Nearby

Snow Depth

Not available.

Earthquake Activity

City Distance Mag. Time & Date
No recent earthquake activity has been reported nearby.
Minimum magnitude displayed is 2.5.

Coastal Water Temperatures

Place Temperature
No Stations Reporting

Nearby Weather Stations

Station Location Temp. Dew Point Humidity Wind Precip. Elev Updated Type
Ustka 65.3 °F 64 °F 97% North  at  4.0 mph 0.00 in / hr 23 ft 7:44 PM CEST Rapid Fire

Show More Stations Show Fewer Stations